• Join FlightAware (Why Join?)
  • Login
  • US Flag 
08:03AM EDT


 

Airport Tracker/Info


-or-


 

Live Flight TrackerFlight Track Log ✈ JBU356 ✈ 20-Jun-2014 ✈ KIAD - KBOS

Flight Track Log - Related Links

Times and Time Zones

All times are in EDT time to prevent confusion due to time zone crossing. See the JBU356 flight status page for this flight to view local times or setup timezone preferences in your user account.

Time Position Orientation Groundspeed Altitude Reporting Facility
EDT Latitude Longitude Course Direction KTS MPH feet Rate Location/Type
06:34PM 39.0000 -77.4500 90° East 193 222 2,400  Level Potomac TRACON
06:35PM 39.0667 -77.4667 349° North 232 267 5,100 2,700 Climbing Potomac TRACON
06:36PM 39.0037 -77.0966 77° East  Level FlightAware Approximate
06:36PM 39.1333 -77.4667 360° North 276 318 7,900  Level Potomac TRACON
06:37PM 39.0263 -76.9720 77° East  Level FlightAware Approximate
06:37PM 39.1833 -77.3833 52° Northeast 314 361 10,000  Level Potomac TRACON
06:38PM 39.0478 -76.8471 78° East  Level FlightAware Approximate
06:38PM 39.1500 -77.2833 113° Southeast 345 397 10,500  Level Potomac TRACON
06:39PM 39.0667 -76.7216 90° East  Level FlightAware Approximate
06:39PM 39.0956 -77.1214 113° Southeast 378 435 13,400  Level Washington Center
06:40PM 39.0844 -76.9875 96° East 376 433 15,700 2,100 Climbing Washington Center
06:41PM 39.0964 -76.8486 84° East 376 433 17,700 1,860 Climbing Washington Center
06:42PM 39.0875 -76.7067 95° East 384 442 19,500 1,860 Climbing Washington Center
06:43PM 39.0658 -76.5647 101° East 394 453 21,500 1,740 Climbing Washington Center
06:44PM 39.0439 -76.4281 102° East 394 453 23,000 720 Climbing Washington Center
06:45PM 39.0219 -76.2864 101° East 394 453 23,000 60 Level Washington Center
06:46PM 39.0203 -76.1581 91° East 394 453 23,200 960 Climbing Washington Center
06:47PM 39.0814 -76.0489 54° Northeast 367 422 25,000 1,380 Climbing Washington Center
06:48PM 39.1525 -75.9450 49° Northeast 361 415 26,000 480 Climbing Washington Center
06:49PM 39.2319 -75.8356 47° Northeast 386 444 26,000 540 Level Washington Center
06:50PM 39.3175 -75.7203 46° Northeast 415 478 27,200 1,200 Climbing Washington Center
06:51PM 39.4094 -75.6158 41° Northeast 427 491 28,400 1,200 Climbing Washington Center
06:52PM 39.5114 -75.5325 32° Northeast 433 498 29,700 1,260 Climbing Washington Center
06:53PM 39.6114 -75.4489 33° Northeast 433 498 31,000 660 Climbing Washington Center
06:54PM 39.7175 -75.3569 34° Northeast 440 506 31,000  Level Washington Center
06:55PM 39.8086 -75.2783 34° Northeast 464 534 31,000  Level New York Center
06:56PM 39.8708 -75.1147 64° Northeast 486 559 31,000  Level New York Center
06:57PM 39.9128 -74.9358 73° East 481 554 31,000  Level New York Center
06:58PM 40.0058 -74.7817 52° Northeast 493 567 31,000  Level New York Center
06:59PM 40.0956 -74.6483 49° Northeast 488 562 31,000  Level New York Center
07:00PM 40.1897 -74.5150 47° Northeast 488 562 31,000  Level New York Center
07:02PM 40.3728 -74.2500 48° Northeast 488 562 31,000  Level New York Center
07:04PM 40.5425 -73.9700 51° Northeast 495 570 31,000  Level Boston Center
07:05PM 40.6289 -73.8278 51° Northeast 496 571 31,000 -720 Level Boston Center
07:06PM 40.7122 -73.6875 52° Northeast 490 564 29,600 -1,500 Descending Boston Center
07:07PM 40.7947 -73.5497 52° Northeast 482 555 28,000 -1,320 Descending Boston Center
07:08PM 40.8761 -73.4172 51° Northeast 468 539 27,000 -1,200 Descending Boston Center
07:09PM 40.9683 -73.2806 48° Northeast 458 527 25,600 -1,680 Descending Boston Center
07:10PM 41.0517 -73.1558 48° Northeast 456 525 23,600 -1,260 Descending Boston Center
07:11PM 41.1322 -73.0350 48° Northeast 445 512 23,000 -300 Descending Boston Center
07:12PM 41.2183 -72.8797 54° Northeast 441 507 23,000  Level Boston Center
07:13PM 41.2711 -72.7297 65° Northeast 448 516 23,000  Level Boston Center
07:14PM 41.3239 -72.5819 65° Northeast 454 522 23,000  Level Boston Center
07:15PM 41.3781 -72.4283 65° Northeast 454 522 23,000 -540 Level Boston Center
07:16PM 41.4306 -72.2769 65° Northeast 453 521 21,900 -1,680 Descending Boston Center
07:17PM 41.4822 -72.1319 65° Northeast 435 501 19,600 -2,340 Descending Boston Center
07:18PM 41.5392 -71.9689 65° Northeast 406 467 17,100 -2,280 Descending Boston Center
07:19PM 41.5853 -71.8364 65° Northeast 398 458 15,000 -2,160 Descending Boston Center
07:20PM 41.6319 -71.6997 65° Northeast 382 440 12,800 -1,980 Descending Boston Center
07:21PM 41.6739 -71.5778 65° Northeast 370 426 11,000 -900 Descending Boston Center
07:23PM 41.7133 -71.4622 65° Northeast 312 359 11,000  Level Boston Center
07:24PM 41.7719 -71.4006 38° Northeast 282 325 11,000 -120 Level Boston Center
07:25PM 41.8500 -71.3650 19° North 279 321 10,800 -960 Descending Boston Center
07:26PM 41.9206 -71.3242 23° Northeast 278 320 9,100 -1,800 Descending Boston Center
07:27PM 41.9950 -71.2819 23° Northeast 273 314 7,200 -1,680 Descending Boston Center
07:28PM 42.0636 -71.2442 22° Northeast 270 311 5,700 -1,440 Descending Boston Center
07:29PM 42.1289 -71.2017 26° Northeast 264 304 4,200 -1,200 Descending Boston Center
07:30PM 42.1936 -71.1467 32° Northeast 261 300 3,400 -600 Descending Boston Center
07:31PM 42.2447 -71.1039 32° Northeast 212 244 3,100 -540 Descending Boston Center
07:32PM 42.2803 -71.0692 36° Northeast 158 182 2,300 -1,020 Descending Boston Center
07:33PM 42.3142 -71.0422 30° Northeast 135 155 1,100 -960 Descending Boston Center
07:34PM 42.3431 -71.0208 29° Northeast 135 155 400 4,740 Descending Boston Center
07:35PM 42.3833 -71.0011 20° North 135 155 11,000 10,080 Climbing Boston Center